Decoded Metar for KRDG (READING in PA, USA) (IATA:RDG) | Meteo·Mobile Aviation Weather
aviador You're here:

KRDG Decoded Metar

READING in PA, USA
Report Time2018-11-18 07:54:00
UTC Time2018-11-18 08:33:06
Flight Rules vfr VFR
WindCalm
Visibility9999 m
Phenomena:N/A
Clouds:Few 120 Hf
CeilingNone
Temp01°C (ISA -13)
Dew Point01°C (100% RH)
AAT-0.8°C
QNH1027 hPa
Density Alt-1,647 ft
Elevation358 ft
Report Wrong Elevation
Raw Report
KRDG 180754Z AUTO 00000KT 10SM FEW120 01/01 A3032 RMK AO2 SLP273
T00110006=

Extra information for KRDG:More info

Metar Taf Metar & Taf Last 4 Metars F.Rules Stats Wind Profile Meteogram Temp Stats Airport Information Weather charts Add Link Nearby VenuesMetar ALERT Operation Metar Decoded Social comments

AIRNAV info for KRDG